Flight Track Log - Related Links

Times and Time Zones

All times are in EDT time to prevent confusion due to time zone crossing. See the N612TX flight status page for this flight to view local times or setup timezone preferences in your user account.


Time Position Orientation Groundspeed Altitude Reporting Facility
EDT Latitude Longitude Course Direction KTS MPH feet Rate Location/Type
Fri 02:07:12 PM 36.9358 -87.4733 27° Northeast 164 189 4,700  Level Memphis Center
Fri 02:07:13 PM 36.9336 -87.4708 138° Southeast 261 300 4,700 1,279 Level Memphis Center
Fri 02:08:13 PM 36.9772 -87.4642 North 159 183 6,000 1,300 Climbing Memphis Center
Fri 02:09:13 PM 37.0250 -87.4519 12° North 176 203 7,300 450 Climbing Memphis Center
Fri 02:10:13 PM 37.0833 -87.4497 North 195 224 6,900 -295 Descending Memphis Center
Fri 02:10:14 PM 37.0894 -87.4497 360° North 254 292 7,000  Climbing Memphis Center
Fri 02:11:13 PM 37.1542 -87.4497 360° North 269 310 6,900 555 Descending Memphis Center
Fri 02:12:13 PM 37.2186 -87.4500 360° North 255 293 8,100 1,225 Climbing Memphis Center
Fri 02:13:35 PM 37.3083 -87.4489 North 219 252 9,800 1,208 Climbing Indianapolis Center
Fri 02:14:37 PM 37.3592 -87.4472 North 206 237 11,000 1,113 Climbing Indianapolis Center
Fri 02:15:39 PM 37.4142 -87.4492 358° North 199 229 12,100 968 Climbing Indianapolis Center
Fri 02:16:41 PM 37.4847 -87.4469 North 213 245 13,000 878 Climbing Indianapolis Center
Fri 02:17:42 PM 37.5481 -87.4472 360° North 223 257 13,900 829 Climbing Indianapolis Center
Fri 02:18:44 PM 37.6097 -87.4472 360° North 220 253 14,700 774 Climbing Indianapolis Center
Fri 02:19:46 PM 37.6711 -87.4458 North 220 253 15,500 823 Climbing Indianapolis Center
Fri 02:20:48 PM 37.7331 -87.4467 359° North 220 253 16,400 774 Climbing Indianapolis Center
Fri 02:21:50 PM 37.7992 -87.4461 360° North 216 249 17,100 726 Climbing Indianapolis Center
Fri 02:22:52 PM 37.8614 -87.4475 359° North 219 252 17,900 1,016 Climbing Indianapolis Center
Fri 02:23:54 PM 37.9189 -87.4444 North 209 241 19,200 871 Climbing Indianapolis Center
Fri 02:24:56 PM 37.9739 -87.4453 359° North 199 229 19,700 432 Climbing Indianapolis Center
Fri 02:25:59 PM 38.0356 -87.4456 360° North 217 250 20,100 432 Climbing Indianapolis Center
Fri 02:27:01 PM 38.1006 -87.4458 360° North 229 264 20,600 484 Climbing Indianapolis Center
Fri 02:28:03 PM 38.1658 -87.4450 North 232 267 21,100 581 Climbing Indianapolis Center
Fri 02:29:05 PM 38.2419 -87.4456 360° North 227 261 21,800 532 Climbing Indianapolis Center
Fri 02:30:07 PM 38.3056 -87.4456 360° North 225 259 22,200 339 Climbing Indianapolis Center
Fri 02:31:09 PM 38.3708 -87.4447 North 231 266 22,500 339 Climbing Indianapolis Center
Fri 02:32:11 PM 38.4358 -87.4447 360° North 232 267 22,900 336 Climbing Indianapolis Center
Fri 02:33:14 PM 38.5014 -87.4442 360° North 232 267 23,200 242 Climbing Indianapolis Center
Fri 02:34:15 PM 38.5664 -87.4450 359° North 232 267 23,400 293 Climbing Indianapolis Center
Fri 02:35:17 PM 38.6319 -87.4439 North 233 268 23,800 290 Climbing Indianapolis Center
Fri 02:36:19 PM 38.6967 -87.4442 360° North 231 266 24,000 97 Climbing Indianapolis Center
Fri 02:37:21 PM 38.7775 -87.4431 North 241 277 24,000  Level Indianapolis Center
Fri 02:38:23 PM 38.8478 -87.4436 360° North 249 287 24,000  Level Indianapolis Center
Fri 02:39:25 PM 38.9192 -87.4428 North 253 291 24,000  Level Indianapolis Center
Fri 02:40:27 PM 38.9906 -87.4425 360° North 254 292 24,000  Level Indianapolis Center
Fri 02:41:30 PM 39.0617 -87.4431 360° North 252 290 24,000  Level Indianapolis Center
Fri 02:42:32 PM 39.1342 -87.4428 360° North 254 292 24,000  Level Indianapolis Center
Fri 02:43:34 PM 39.2058 -87.4419 North 256 295 24,000  Level Indianapolis Center
Fri 02:44:36 PM 39.2764 -87.4417 360° North 255 293 24,000  Level Indianapolis Center
Fri 02:45:38 PM 39.3608 -87.4414 360° North 252 290 24,000  Level Indianapolis Center
Fri 02:46:40 PM 39.4322 -87.4417 360° North 255 293 24,000  Level Indianapolis Center
Fri 02:47:42 PM 39.5031 -87.4408 North 255 293 24,000  Level Indianapolis Center
Fri 02:48:44 PM 39.5728 -87.4411 360° North 253 291 24,000  Level Indianapolis Center
Fri 02:49:46 PM 39.6419 -87.4406 360° North 250 288 24,000  Level Indianapolis Center
Fri 02:50:48 PM 39.7108 -87.4403 360° North 249 287 24,000  Level Indianapolis Center
Fri 02:51:50 PM 39.7972 -87.4400 360° North 257 296 24,000  Level Indianapolis Center
Fri 02:52:52 PM 39.8675 -87.4397 360° North 255 293 24,000  Level Indianapolis Center
Fri 02:53:54 PM 39.9392 -87.4397 360° North 256 295 24,000  Level Indianapolis Center
Fri 02:54:56 PM 40.0122 -87.4392 360° North 259 298 24,000  Level Indianapolis Center
Fri 02:55:58 PM 40.0847 -87.4394 360° North 261 300 24,000  Level Indianapolis Center
Fri 02:57:00 PM 40.1561 -87.4389 360° North 259 298 24,000  Level Indianapolis Center
Fri 02:58:07 PM 40.2408 -87.4397 360° North 256 295 24,000  Level Chicago Center
Fri 02:59:09 PM 40.3119 -87.4406 359° North 256 295 24,000  Level Chicago Center
Fri 03:00:11 PM 40.3850 -87.4403 360° North 260 299 24,000  Level Chicago Center
Fri 03:01:13 PM 40.4631 -87.4386 North 258 297 24,000  Level Chicago Center
Fri 03:02:15 PM 40.5342 -87.4375 North 258 297 24,000  Level Chicago Center
Fri 03:03:17 PM 40.6197 -87.4375 360° North 257 296 24,000  Level Chicago Center
Fri 03:04:19 PM 40.6911 -87.4375 360° North 258 297 24,000  Level Chicago Center
Fri 03:05:22 PM 40.7636 -87.4378 360° North 261 300 24,000  Level Chicago Center
Fri 03:06:24 PM 40.8347 -87.4372 360° North 259 298 24,000  Level Chicago Center
Fri 03:07:26 PM 40.9061 -87.4367 360° North 259 298 24,000  Level Chicago Center
Fri 03:08:28 PM 40.9919 -87.4356 North 260 299 24,000  Level Chicago Center
Fri 03:09:30 PM 41.0639 -87.4361 360° North 259 298 24,000  Level Chicago Center
Fri 03:10:32 PM 41.1364 -87.4347 North 261 300 24,000  Level Chicago Center
Fri 03:11:34 PM 41.2078 -87.4350 360° North 260 299 24,000  Level Chicago Center
Fri 03:12:36 PM 41.2794 -87.4350 360° North 259 298 24,000  Level Chicago Center
Fri 03:13:38 PM 41.3650 -87.4353 360° North 259 298 24,000  Level Chicago Center
Fri 03:14:41 PM 41.4358 -87.4344 North 257 296 24,000  Level Chicago Center
Fri 03:15:43 PM 41.5067 -87.4344 360° North 258 297 24,000  Level Chicago Center
Fri 03:16:45 PM 41.5767 -87.4344 360° North 253 291 24,000  Level Chicago Center
Fri 03:17:47 PM 41.6622 -87.4339 360° North 259 298 24,000  Level Chicago Center
Fri 03:18:49 PM 41.7333 -87.4339 360° North 258 297 24,000  Level Chicago Center
Fri 03:19:51 PM 41.8036 -87.4331 North 256 295 24,000  Level Chicago Center
Fri 03:20:53 PM 41.8731 -87.4317 North 253 291 24,000  Level Chicago Center
Fri 03:21:55 PM 41.9425 -87.4317 360° North 252 290 24,000  Level Chicago Center
Fri 03:22:57 PM 42.0242 -87.4322 360° North 246 283 24,000  Level Chicago Center
Fri 03:24:00 PM 42.0911 -87.4319 360° North 241 277 24,000  Level Chicago Center
Fri 03:25:02 PM 42.1583 -87.4317 360° North 242 278 24,000  Level Chicago Center
Fri 03:26:04 PM 42.2253 -87.4314 360° North 242 278 24,000  Level Chicago Center
Fri 03:27:06 PM 42.2933 -87.4306 North 246 283 24,000  Level Chicago Center
Fri 03:28:08 PM 42.3739 -87.4308 360° North 243 280 24,000  Level Chicago Center
Fri 03:29:10 PM 42.4408 -87.4311 360° North 242 278 24,000  Level Chicago Center
Fri 03:30:12 PM 42.5078 -87.4297 North 242 278 24,000  Level Chicago Center
Fri 03:31:14 PM 42.5750 -87.4306 359° North 242 278 24,000  Level Chicago Center
Fri 03:32:16 PM 42.6531 -87.4297 360° North 243 280 24,000  Level Chicago Center
Fri 03:33:18 PM 42.7203 -87.4306 359° North 243 280 24,000  Level Chicago Center
Fri 03:34:21 PM 42.7881 -87.4286 North 245 282 24,000  Level Chicago Center
Fri 03:35:23 PM 42.8539 -87.4289 360° North 238 274 24,000  Level Chicago Center
Fri 03:36:25 PM 42.9206 -87.4286 360° North 239 275 24,000  Level Chicago Center
Fri 03:37:27 PM 42.9867 -87.4289 360° North 238 274 24,000  Level Chicago Center
Fri 03:38:29 PM 43.0636 -87.4492 349° North 233 268 24,000  Level Chicago Center
Fri 03:39:31 PM 43.1292 -87.4606 353° North 236 272 24,000  Level Chicago Center
Fri 03:40:33 PM 43.1958 -87.4714 353° North 239 275 24,000  Level Chicago Center
Fri 03:41:35 PM 43.2622 -87.4803 354° North 241 277 24,000  Level Chicago Center
Fri 03:42:37 PM 43.3286 -87.4814 359° North 241 277 24,000  Level Chicago Center
Fri 03:43:40 PM 43.4083 -87.4831 359° North 239 275 24,000 -96 Level Chicago Center
Fri 03:44:42 PM 43.4714 -87.4911 355° North 231 266 23,800 -435 Descending Chicago Center
Fri 03:45:44 PM 43.5406 -87.4900 North 247 284 23,100 -823 Descending Chicago Center
Fri 03:46:46 PM 43.6194 -87.4853 North 276 318 22,100 -968 Descending Chicago Center
Fri 03:47:48 PM 43.7008 -87.4814 North 290 334 21,100 -1,113 Descending Chicago Center
Fri 03:48:50 PM 43.8008 -87.4769 North 300 345 19,800 -1,258 Descending Chicago Center
Fri 03:49:52 PM 43.8864 -87.4733 North 307 353 18,500 -1,258 Descending Chicago Center
Fri 03:50:54 PM 43.9728 -87.4678 North 311 358 17,200 -1,344 Descending Chicago Center
Fri 03:51:57 PM 44.0581 -87.4633 North 309 356 15,700 -1,440 Descending Chicago Center
Fri 03:52:59 PM 44.1411 -87.4608 North 301 346 14,200 -1,645 Descending Chicago Center
Fri 03:54:01 PM 44.2339 -87.4703 356° North 280 322 12,300 -1,645 Descending Chicago Center
Fri 03:55:03 PM 44.3022 -87.4761 357° North 252 290 10,800 -1,452 Descending Chicago Center
Fri 03:56:05 PM 44.3689 -87.4831 356° North 243 280 9,300 -1,452 Descending Chicago Center
Fri 03:57:07 PM 44.4317 -87.4894 356° North 231 266 7,800 -1,500 Descending Chicago Center
Fri 03:58:09 PM 44.4992 -87.4956 356° North 227 261 6,200 -1,308 Descending Chicago Center
Fri 03:59:20 PM 44.5686 -87.5017 356° North 217 250 4,900 -947 Descending Minneapolis Center
Fri 04:00:22 PM 44.6133 -87.4881 12° North 199 229 4,100 -484 Descending Minneapolis Center
Fri 04:01:24 PM 44.5847 -87.4556 141° Southeast 171 197 3,900 -532 Descending Minneapolis Center
Fri 04:02:26 PM 44.5386 -87.4517 177° South 162 186 3,000 -488 Descending Minneapolis Center
Fri 04:03:27 PM 44.4919 -87.4458 175° South 163 188 2,900 -49 Descending Minneapolis Center
Fri 04:04:29 PM 44.5178 -87.4958 306° West 161 185 2,900  Level Minneapolis Center
Fri 04:05:31 PM 44.5608 -87.5014 355° North 156 180 2,900  Level Minneapolis Center
Fri 04:06:33 PM 44.6011 -87.5042 357° North 152 175 2,900 -244 Level Minneapolis Center
Fri 04:07:34 PM 44.6436 -87.4867 16° North 156 180 2,400 -293 Descending Minneapolis Center
Fri 04:08:36 PM 44.6894 -87.4714 13° North 163 188 2,300 -48 Descending Minneapolis Center
Fri 04:09:38 PM 44.7250 -87.4619 11° North 155 178 2,300  Level Minneapolis Center
Fri 04:10:40 PM 44.7522 -87.4511 16° North 133 153 2,300 -341 Level Minneapolis Center
Fri 04:11:41 PM 44.7869 -87.4403 12° North 117 135 1,600 -634 Descending Minneapolis Center
Fri 04:12:43 PM 44.8178 -87.4308 12° North 113 130 1,000 -581 Descending Minneapolis Center

Login

Don't have an account? Register now (free) for customized features, flight alerts, and more!